עמוד ראשי
METAR-TAF:

METAR-TAF

שדות תעופה :

מפרץ קמפצ'ה, מקסיקו

קו רוחב: 19-51N, קו אורך: 090-33W, גובה: 5מטר

תצפית מזג אוויר נוכחית

הדו"ח נערך לפני 2 שעות ו 46דקות, בשעה 03:43 UTC
רוח 5קשר מכיוון דרום-מזרח
טמפרטורת 30 צלסיוס
לחות 66%
לחץ 1009 hPa
ראות: 9.7קילומטר
שמיים נקיים

METAR: MMCP 270343Z 13005KT 6SM SKC 30/23 A2980 RMK HZY

זמן: 01:29 (06:29 UTC)

תחזית

הדו"ח נערך לפני 1 שעות ו 24דקות, בשעה 05:05 UTC
תחזית בתוקף מ 27 ב 06 UTC עד 28 ב 06 UTC
רוח 8קשר מכיוון מזרח/דרום-מזרח
ראות: 9.7קילומטר
שמיים נקיים
אובך
זמנית מ -
27 ב 09 UTC עד 27 ב 13 UTC
ראות: 8.0קילומטר
עננים בינוניים בגובה 2000רגל
אובך
מ 27 ב 1400UTC
רוח 10קשר מכיוון דרום/דרום-מזרח עם משבים עד 20קשר
ראות: 9.7קילומטר
שמיים נקיים
אובך
יעשה מ
27 ב 17 UTC עד 27 ב 19 UTC
רוח 15קשר מכיוון מערב/צפון-מערב
מ 28 ב 0300UTC
רוח 10קשר מכיוון מזרח/צפון-מזרח
ראות: 9.7קילומטר
שמיים נקיים
אובך,

TAF: MMCP 270505Z 2706/2806 12008KT 6SM HZ SKC TEMPO 2709/2713 5SM HZ BKN020 FM271400 15010G20KT 6SM HZ SKC BECMG 2717/2719 30015KT FM280300 07010KT 6SM HZ SKC

תצפיות ותחזיות מזג אוויר לגבי יותר מ- 4,000 שדות תעופה ברחבי העולם. דוחות METAR ו- TAF.

התחנות הזמינות מסומנות בנקודות צהובות ואדומות על גבי המפה.

העבר את העכבר לנקודה הצבעונית על מנת לראות את שם התחנה.

לאחר מכן, לחץ כדי לראות את תוכן ואת תחזיות מזג האוויר.

כדי לשנות את המפה: לחץ על הכפתורים הירוקים עם הפלוס השחור כדי להתקרב; על הכפתור הירוק עם המקף כדי להתרחק; או בחיצים הירוקים למפות סמוכות.


METAR-TAF: